Time;durP1;ratioP1;P1;durP2;ratioP2;P2;SDS_P1;SDS_P2;PMS_P1;PMS_P2;Temp;Humidity;BMP_temperature;BMP_pressure;BME280_temperature;BME280_humidity;BME280_pressure;Samples;Min_cycle;Max_cycle;Signal;HPM_P1;HPM_P2
2021/07/14 00:01:14;;;;;;;15.87;14.50;;;;;;;;;;827654;71;33266;-76
2021/07/14 00:31:14;;;;;;;14.53;13.23;;;;;;;26.13;46.51;94305.39;834232;71;29664;-76
2021/07/14 00:46:24;;;;;;;15.20;13.87;;;;;;;26.27;46.39;94312.63;828430;71;30473;-77
2021/07/14 01:01:14;;;;;;;14.47;13.20;;;;;;;26.03;46.63;94308.31;835680;71;32742;-77
2021/07/14 01:16:10;;;;;;;13.77;12.67;;;;;;;25.79;46.43;94308.58;828320;71;29850;-77
2021/07/14 01:31:17;;;;;;;14.60;13.30;;;;;;;25.72;46.87;94318.78;827514;71;32766;-77
2021/07/14 01:46:15;;;;;;;14.53;13.33;;;;;;;24.99;48.23;94322.72;827662;71;32769;-76
2021/07/14 02:01:12;;;;;;;14.73;13.53;;;;;;;25.79;47.36;94316.08;828427;71;29711;-76
2021/07/14 02:16:15;;;;;;;15.30;14.10;;;;;;;26.06;47.37;94325.61;833988;71;32818;-77
2021/07/14 02:31:14;;;;;;;16.27;14.60;;;;;;;26.14;47.39;94342.67;827652;71;33283;-77
2021/07/14 02:46:15;;;;;;;16.20;14.80;;;;;;;26.26;46.94;94350.88;834121;71;28671;-73
2021/07/14 03:16:14;;;;;;;15.57;14.30;;;;;;;26.22;47.13;94374.90;833864;71;32257;-76
2021/07/14 03:31:15;;;;;;;16.07;14.77;;;;;;;26.18;47.02;94369.55;827506;71;31849;-76
2021/07/14 03:46:10;;;;;;;17.03;15.33;;;;;;;26.60;46.02;94370.51;828402;71;29196;-79
2021/07/14 04:01:09;;;;;;;17.10;15.50;;;;;;;27.10;46.45;94395.00;828428;71;28706;-78
2021/07/14 04:16:08;;;;;;;17.77;16.23;;;;;;;27.37;45.13;94393.84;834839;71;28759;-76
2021/07/14 04:31:08;;;;;;;22.63;18.00;;;;;;;28.15;45.41;94392.91;828448;71;28726;-75
2021/07/14 04:46:08;;;;;;;19.77;17.87;;;;;;;27.80;45.19;94408.86;834179;71;28713;-77
2021/07/14 05:01:09;;;;;;;19.53;17.77;;;;;;;25.75;46.81;94290.35;822406;71;29148;-78
2021/07/14 05:16:15;;;;;;;21.07;19.17;;;;;;;26.53;48.18;94438.58;825392;71;31815;-75
2021/07/14 05:31:18;;;;;;;20.40;18.30;;;;;;;25.52;49.72;94347.25;827639;71;32361;-74
2021/07/14 05:46:08;;;;;;;20.87;19.07;;;;;;;26.13;50.47;94439.88;828321;71;28682;-75
2021/07/14 06:01:09;;;;;;;20.90;18.90;;;;;;;26.34;50.63;94449.83;827924;71;29761;-77
2021/07/14 06:16:14;;;;;;;20.77;18.77;;;;;;;26.41;50.12;94403.28;827786;71;29954;-75
2021/07/14 06:32:00;;;;;;;20.57;18.87;;;;;;;;;;836115;70;32059;-75
2021/07/14 06:46:15;;;;;;;20.47;18.70;;;;;;;;;;827654;71;31801;-73
2021/07/14 07:01:15;;;;;;;21.53;19.37;;;;;;;27.95;48.19;94439.36;834095;71;31552;-73
2021/07/14 07:16:10;;;;;;;22.07;20.17;;;;;;;28.28;47.89;94434.98;834095;71;29571;-74
2021/07/14 07:31:10;;;;;;;20.77;18.73;;;;;;;28.92;46.79;94417.98;828023;71;28706;-76
2021/07/14 07:46:10;;;;;;;21.43;19.53;;;;;;;29.40;45.17;94414.80;828145;71;29263;-79
2021/07/14 08:01:09;;;;;;;20.20;18.50;;;;;;;30.51;43.04;94407.97;828259;71;29535;-74
2021/07/14 08:16:08;;;;;;;21.77;19.90;;;;;;;31.06;41.10;94394.80;833493;70;28666;-77
2021/07/14 09:16:35;;;;;;;18.53;17.10;;;;;;;31.80;37.44;94381.97;833897;71;31730;-76
2021/07/14 09:31:12;;;;;;;17.43;15.83;;;;;;;32.36;36.33;94368.63;828291;71;28718;-79
2021/07/14 09:46:13;;;;;;;18.20;16.70;;;;;;;32.72;35.25;94377.88;828421;71;28672;-75
2021/07/14 10:01:15;;;;;;;16.73;15.17;;;;;;;33.67;33.37;94366.37;828478;71;28170;-76
2021/07/14 10:16:12;;;;;;;17.47;15.97;;;;;;;34.74;32.17;94356.20;834120;71;30834;-77
2021/07/14 10:31:10;;;;;;;16.37;15.17;;;;;;;34.76;31.72;94344.23;818834;71;28746;-76
2021/07/14 10:46:15;;;;;;;16.67;15.17;;;;;;;35.13;30.07;94333.42;824543;71;30746;-75
2021/07/14 11:01:15;;;;;;;15.17;14.07;;;;;;;34.90;30.01;94318.52;828158;71;30601;-75
2021/07/14 11:16:36;;;;;;;14.23;13.13;;;;;;;34.38;29.39;94319.36;827359;71;31460;-76
2021/07/14 11:31:15;;;;;;;15.40;14.20;;;;;;;34.96;28.79;94307.00;827879;71;30805;-76
2021/07/14 11:46:18;;;;;;;13.33;12.13;;;;;;;34.64;28.48;94302.20;827265;71;30797;-75
2021/07/14 12:01:27;;;;;;;13.43;12.30;;;;;;;34.92;27.27;94278.53;833892;71;30807;-75
2021/07/14 12:16:14;;;;;;;12.30;11.40;;;;;;;34.39;26.88;94281.34;828856;71;28234;-76
2021/07/14 12:31:13;;;;;;;13.37;12.27;;;;;;;34.59;27.34;94266.76;827653;71;29723;-76
2021/07/14 12:46:25;;;;;;;13.57;12.50;;;;;;;34.76;27.51;94241.38;827412;71;31337;-74
2021/07/14 13:01:08;;;;;;;13.00;12.00;;;;;;;34.41;27.78;94240.78;828239;71;28268;-75
2021/07/14 13:16:13;;;;;;;13.20;11.90;;;;;;;34.15;27.70;94242.36;834429;71;29754;-76
2021/07/14 13:31:10;;;;;;;13.37;12.30;;;;;;;34.05;27.82;94233.36;829138;71;28746;-76
2021/07/14 13:46:23;;;;;;;12.53;11.53;;;;;;;34.10;27.76;94225.20;835816;71;31729;-76
2021/07/14 14:01:18;;;;;;;12.37;11.27;;;;;;;34.01;27.98;94214.28;827510;71;32205;-78
2021/07/14 14:16:08;;;;;;;12.47;11.47;;;;;;;34.01;27.79;94194.61;828320;71;28307;-75
2021/07/14 14:31:08;;;;;;;12.80;11.50;;;;;;;33.88;27.66;94197.43;828416;71;28794;-76
2021/07/14 14:46:15;;;;;;;13.43;12.37;;;;;;;33.55;28.07;94191.61;827369;71;31794;-76
2021/07/14 15:16:15;;;;;;;12.40;11.40;;;;;;;33.09;28.60;94164.88;827425;71;32200;-76
2021/07/14 15:31:13;;;;;;;12.90;11.90;;;;;;;33.07;28.95;94168.60;835054;71;28689;-74
2021/07/14 15:46:32;;;;;;;13.50;12.40;;;;;;;32.93;30.33;94167.12;827648;71;32254;-75
2021/07/14 16:01:38;;;;;;;11.90;11.03;;;;;;;32.78;30.68;94176.95;828541;71;28166;-75
2021/07/14 16:16:28;;;;;;;11.70;10.80;;;;;;;32.54;30.73;94171.12;833875;71;31718;-76
2021/07/14 16:31:25;;;;;;;12.87;11.77;;;;;;;32.33;31.56;94170.61;827405;71;31849;-75
2021/07/14 16:46:22;;;;;;;42.50;30.83;;;;;;;31.94;33.02;94164.42;827518;71;32171;-75
2021/07/14 17:01:15;;;;;;;15.47;13.97;;;;;;;31.67;34.19;94165.42;828092;71;29118;-75
2021/07/14 17:16:18;;;;;;;17.53;16.03;;;;;;;31.26;36.76;94166.34;827912;71;32748;-76
2021/07/14 17:31:11;;;;;;;16.03;14.67;;;;;;;30.92;38.64;94167.66;835166;70;29096;-76
2021/07/14 17:46:08;;;;;;;16.60;15.00;;;;;;;30.51;39.94;94181.22;829531;71;29834;-76
2021/07/14 18:01:22;;;;;;;16.87;14.30;;;;;;;30.21;41.00;94177.47;828258;71;30374;-75
2021/07/14 18:16:25;;;;;;;16.30;14.80;;;;;;;29.76;40.63;94172.08;827428;71;33264;-75
2021/07/14 18:31:27;;;;;;;16.73;13.07;;;;;;;29.33;37.85;94185.11;816415;71;32007;-74
2021/07/14 18:46:21;;;;;;;14.97;13.50;;;;;;;28.98;37.57;94206.20;827402;71;31880;-75
2021/07/14 19:01:29;;;;;;;13.88;12.78;;;;;;;28.90;37.56;94216.36;828847;71;38781;-75
2021/07/14 19:16:18;;;;;;;14.90;13.70;;;;;;;28.85;38.25;94222.81;833838;71;32739;-74
2021/07/14 19:31:25;;;;;;;17.40;15.90;;;;;;;28.71;39.78;94227.30;823205;71;30087;-74
2021/07/14 19:46:22;;;;;;;17.47;15.80;;;;;;;28.29;41.56;94216.55;824074;71;29627;-78
2021/07/14 20:01:30;;;;;;;17.47;15.83;;;;;;;27.86;43.13;94218.45;820145;71;32892;-75
2021/07/14 20:16:16;;;;;;;17.40;15.83;;;;;;;;;;834214;71;30436;-75
2021/07/14 20:31:21;;;;;;;17.13;15.50;;;;;;;27.51;45.47;94213.11;827878;71;33145;-76
2021/07/14 20:46:12;;;;;;;17.17;15.67;;;;;;;;;;828317;71;30062;-74
2021/07/14 21:16:10;;;;;;;15.87;14.27;;;;;;;26.82;48.52;94212.27;827956;71;30346;-75
2021/07/14 21:31:09;;;;;;;16.63;15.17;;;;;;;26.75;49.22;94223.13;828223;71;29661;-73
2021/07/14 21:46:15;;;;;;;15.80;14.33;;;;;;;26.77;48.91;94244.44;827416;71;33211;-74
2021/07/14 22:01:15;;;;;;;15.93;14.13;;;;;;;26.78;49.08;94245.20;827383;71;32778;-75
2021/07/14 22:16:10;;;;;;;16.37;14.80;;;;;;;26.70;48.20;94267.96;829720;71;29759;-78
2021/07/14 22:31:11;;;;;;;16.07;14.57;;;;;;;26.71;49.21;94272.20;828234;71;29755;-73
2021/07/14 22:46:09;;;;;;;17.90;14.80;;;;;;;26.32;51.33;94263.22;828192;71;29755;-74
2021/07/14 23:01:10;;;;;;;16.70;15.10;;;;;;;26.02;53.40;94253.60;833868;71;31325;-76
2021/07/14 23:16:15;;;;;;;16.40;14.73;;;;;;;25.77;54.43;94253.09;833744;71;32820;-74
2021/07/14 23:31:15;;;;;;;17.90;16.00;;;;;;;25.52;55.43;94249.17;833839;71;32673;-73
2021/07/14 23:46:08;;;;;;;17.20;15.50;;;;;;;25.36;56.25;94265.14;828230;71;29814;-76
